createdAt,value
2023-05-21T00:02:15.446Z,101015.35
2023-05-21T00:04:46.306Z,101016.72
2023-05-21T00:07:17.225Z,101015.37
2023-05-21T00:09:48.027Z,101013.70
2023-05-21T00:12:18.913Z,101010.20
2023-05-21T00:14:49.738Z,101008.23
2023-05-21T00:17:20.517Z,101007.67
2023-05-21T00:19:51.965Z,101012.60
2023-05-21T00:22:22.767Z,101010.78
2023-05-21T00:24:53.598Z,101008.16
2023-05-21T00:27:24.342Z,101005.89
2023-05-21T00:29:55.115Z,101007.55
2023-05-21T00:32:26.385Z,101007.32
2023-05-21T00:34:58.359Z,101005.00
2023-05-21T00:37:29.955Z,101004.37
2023-05-21T00:40:02.421Z,101009.79
2023-05-21T00:42:34.201Z,101009.99
2023-05-21T00:45:05.152Z,101015.14
2023-05-21T00:47:36.399Z,101013.80
2023-05-21T00:50:10.457Z,101014.54
2023-05-21T00:52:42.796Z,101009.42
2023-05-21T00:55:13.817Z,101008.61
2023-05-21T00:57:46.185Z,101003.25
2023-05-21T01:00:17.633Z,101003.27
2023-05-21T01:02:48.808Z,101001.80
2023-05-21T01:05:20.140Z,100996.73
2023-05-21T01:07:52.004Z,100994.04
2023-05-21T01:10:23.019Z,100993.70
2023-05-21T01:12:57.582Z,100991.63
2023-05-21T01:15:28.634Z,100986.64
2023-05-21T01:18:00.751Z,100986.97
2023-05-21T01:20:32.142Z,100988.08
2023-05-21T01:23:04.150Z,100990.20
2023-05-21T01:25:36.275Z,100993.29
2023-05-21T01:28:07.761Z,100993.27
2023-05-21T01:30:40.802Z,100989.68
2023-05-21T01:33:14.352Z,100993.02
2023-05-21T01:35:49.103Z,100990.64
2023-05-21T01:38:24.010Z,100988.21
2023-05-21T01:40:58.885Z,100990.22
2023-05-21T01:43:30.680Z,100990.13
2023-05-21T01:46:03.148Z,100992.17
2023-05-21T01:48:35.561Z,100988.77
2023-05-21T01:51:07.296Z,100991.98
2023-05-21T01:53:40.856Z,100994.05
2023-05-21T01:56:12.821Z,100998.16
2023-05-21T01:58:44.157Z,100993.86
2023-05-21T02:01:15.186Z,100990.95
2023-05-21T02:03:46.108Z,100989.86
2023-05-21T02:06:17.012Z,100992.08
2023-05-21T02:08:48.544Z,100991.61
2023-05-21T02:11:19.386Z,100989.10
2023-05-21T02:13:50.215Z,100990.20
2023-05-21T02:16:22.940Z,100987.83
2023-05-21T02:18:54.573Z,100985.73
2023-05-21T02:21:25.491Z,100986.63
2023-05-21T02:23:56.350Z,100987.06
2023-05-21T02:26:27.215Z,100982.02
2023-05-21T02:28:58.020Z,100979.78
2023-05-21T02:31:28.886Z,100978.92
2023-05-21T02:33:59.706Z,100980.54
2023-05-21T02:36:33.422Z,100984.02
2023-05-21T02:39:04.499Z,100984.11
2023-05-21T02:41:35.351Z,100985.74
2023-05-21T02:44:06.304Z,100986.05
2023-05-21T02:46:37.138Z,100984.70
2023-05-21T02:49:08.094Z,100983.61
2023-05-21T02:51:39.028Z,100985.91
2023-05-21T02:54:09.842Z,100984.20
2023-05-21T02:56:40.646Z,100978.46
2023-05-21T02:59:11.699Z,100977.83
2023-05-21T03:01:45.161Z,100976.93
2023-05-21T03:04:17.375Z,100973.70
2023-05-21T03:06:48.288Z,100976.66
2023-05-21T03:09:19.077Z,100972.73
2023-05-21T03:11:49.972Z,100973.95
2023-05-21T03:14:20.830Z,100975.14
2023-05-21T03:16:51.748Z,100969.98
2023-05-21T03:19:22.749Z,100971.86
2023-05-21T03:21:54.797Z,100971.27
2023-05-21T03:24:26.446Z,100973.17
2023-05-21T03:26:57.381Z,100973.92
2023-05-21T03:29:28.713Z,100973.90
2023-05-21T03:31:59.897Z,100977.46
2023-05-21T03:34:31.357Z,100975.38
2023-05-21T03:37:02.676Z,100977.88
2023-05-21T03:39:33.657Z,100978.59
2023-05-21T03:42:04.419Z,100978.55
2023-05-21T03:44:41.461Z,100978.59
2023-05-21T03:47:31.069Z,100973.41
2023-05-21T03:50:02.660Z,100974.81
2023-05-21T03:52:33.479Z,100975.39
2023-05-21T03:55:04.681Z,100972.66
2023-05-21T03:57:35.565Z,100972.27
2023-05-21T04:00:09.134Z,100973.44
2023-05-21T04:02:47.137Z,100972.65
2023-05-21T04:05:20.451Z,100976.60
2023-05-21T04:07:51.376Z,100979.45
2023-05-21T04:10:23.197Z,100976.65
2023-05-21T04:12:54.034Z,100978.33
2023-05-21T04:15:24.934Z,100977.30
2023-05-21T04:17:55.858Z,100977.56
2023-05-21T04:20:26.781Z,100976.71
2023-05-21T04:22:57.718Z,100978.95
2023-05-21T04:25:28.526Z,100980.15
2023-05-21T04:27:59.410Z,100977.17
2023-05-21T04:30:31.400Z,100978.38
2023-05-21T04:33:02.333Z,100978.11
2023-05-21T04:35:33.276Z,100975.45
2023-05-21T04:38:05.727Z,100972.81
2023-05-21T04:40:37.044Z,100975.06
2023-05-21T04:43:08.304Z,100969.48
2023-05-21T04:45:39.208Z,100969.80
2023-05-21T04:48:10.195Z,100971.34
2023-05-21T04:50:41.696Z,100973.23
2023-05-21T04:53:12.559Z,100965.00
2023-05-21T04:55:43.450Z,100963.98
2023-05-21T04:58:14.812Z,100965.64
2023-05-21T05:00:46.259Z,100962.02
2023-05-21T05:03:17.251Z,100958.00
2023-05-21T05:05:48.431Z,100961.15
2023-05-21T05:08:19.203Z,100954.41
2023-05-21T05:10:51.028Z,100957.71
2023-05-21T05:13:21.940Z,100954.20
2023-05-21T05:15:54.861Z,100956.23
2023-05-21T05:18:25.925Z,100954.80
2023-05-21T05:20:56.828Z,100954.07
2023-05-21T05:23:28.267Z,100957.83
2023-05-21T05:25:59.110Z,100954.08
2023-05-21T05:28:31.349Z,100954.58
2023-05-21T05:31:03.188Z,100951.84
2023-05-21T05:33:34.224Z,100953.89
2023-05-21T05:36:05.351Z,100952.36
2023-05-21T05:38:36.402Z,100958.09
2023-05-21T05:41:07.520Z,100954.62
2023-05-21T05:43:38.436Z,100950.56
2023-05-21T05:46:09.362Z,100953.61
2023-05-21T05:48:40.170Z,100950.87
2023-05-21T05:51:12.089Z,100953.88
2023-05-21T05:53:42.927Z,100952.67
2023-05-21T05:56:16.266Z,100949.95
2023-05-21T05:58:47.063Z,100946.52
2023-05-21T06:01:19.911Z,100947.68
2023-05-21T06:03:50.803Z,100946.24
2023-05-21T06:06:22.359Z,100938.38
2023-05-21T06:08:53.723Z,100942.04
2023-05-21T06:11:24.533Z,100944.28
2023-05-21T06:13:56.829Z,100943.65
2023-05-21T06:16:27.719Z,100946.02
2023-05-21T06:18:58.669Z,100939.35
2023-05-21T06:21:29.703Z,100943.46
2023-05-21T06:24:00.837Z,100943.23
2023-05-21T06:26:32.515Z,100940.45
2023-05-21T06:29:04.314Z,100942.82
2023-05-21T06:31:35.642Z,100939.68
2023-05-21T06:34:06.583Z,100940.06
2023-05-21T06:36:37.468Z,100938.56
2023-05-21T06:39:08.470Z,100944.69
2023-05-21T06:41:39.913Z,100943.41
2023-05-21T06:44:27.363Z,100943.98
2023-05-21T06:47:15.466Z,100943.63
2023-05-21T06:49:47.449Z,100942.77
2023-05-21T06:52:18.330Z,100938.52
2023-05-21T06:54:49.087Z,100935.98
2023-05-21T06:57:20.052Z,100938.23
2023-05-21T06:59:50.811Z,100936.09
2023-05-21T07:02:21.712Z,100938.31
2023-05-21T07:04:53.768Z,100935.08
2023-05-21T07:07:24.626Z,100937.60
2023-05-21T07:09:55.596Z,100936.70
2023-05-21T07:12:26.485Z,100936.10
2023-05-21T07:14:59.273Z,100934.76
2023-05-21T07:17:30.741Z,100939.84
2023-05-21T07:20:01.670Z,100938.16
2023-05-21T07:22:34.174Z,100936.77
2023-05-21T07:25:05.253Z,100941.05
2023-05-21T07:27:36.265Z,100933.17
2023-05-21T07:30:09.000Z,100937.52
2023-05-21T07:32:39.939Z,100936.09
2023-05-21T07:35:11.102Z,100933.33
2023-05-21T07:37:42.083Z,100935.34
2023-05-21T07:40:14.356Z,100933.92
2023-05-21T07:42:45.981Z,100929.71
2023-05-21T07:45:17.120Z,100925.25
2023-05-21T07:47:48.196Z,100922.38
2023-05-21T07:50:20.326Z,100920.91
2023-05-21T07:52:51.574Z,100921.73
2023-05-21T07:55:23.340Z,100923.69
2023-05-21T07:57:54.384Z,100919.53
2023-05-21T08:00:30.568Z,100919.63
2023-05-21T08:03:02.686Z,100918.46
2023-05-21T08:05:33.775Z,100919.44
2023-05-21T08:08:05.813Z,100918.80
2023-05-21T08:10:37.256Z,100920.54
2023-05-21T08:13:08.172Z,100916.77
2023-05-21T08:15:39.170Z,100918.86
2023-05-21T08:18:12.090Z,100913.20
2023-05-21T08:20:42.839Z,100914.84
2023-05-21T08:23:13.898Z,100913.45
2023-05-21T08:25:49.750Z,100911.29
2023-05-21T08:28:21.116Z,100907.40
2023-05-21T08:30:51.871Z,100907.65
2023-05-21T08:33:22.810Z,100908.31
2023-05-21T08:35:53.524Z,100910.54
2023-05-21T08:38:32.090Z,100908.48
2023-05-21T08:41:29.778Z,100905.58
2023-05-21T08:44:02.978Z,100903.69
2023-05-21T08:46:34.581Z,100903.71
2023-05-21T08:49:05.450Z,100904.08
2023-05-21T08:51:36.662Z,100900.36
2023-05-21T08:54:09.154Z,100901.70
2023-05-21T08:56:47.175Z,100898.42
2023-05-21T08:59:21.751Z,100902.57
2023-05-21T09:01:53.271Z,100902.11
2023-05-21T09:04:28.909Z,100902.86
2023-05-21T09:07:02.952Z,100902.27
2023-05-21T09:10:10.099Z,100905.90
2023-05-21T09:12:41.421Z,100899.75
2023-05-21T09:15:14.319Z,100899.86
2023-05-21T09:17:47.687Z,100898.83
2023-05-21T09:20:50.973Z,100893.39
2023-05-21T09:23:22.522Z,100894.57
2023-05-21T09:25:53.871Z,100891.81
2023-05-21T09:28:31.803Z,100891.75
2023-05-21T09:31:04.433Z,100888.14
2023-05-21T09:33:35.252Z,100887.89
2023-05-21T09:36:08.905Z,100884.23
2023-05-21T09:38:39.826Z,100878.25
2023-05-21T09:41:10.910Z,100882.41
2023-05-21T09:43:44.932Z,100876.25
2023-05-21T09:46:17.146Z,100877.30
2023-05-21T09:48:48.369Z,100878.91
2023-05-21T09:51:22.122Z,100877.52
2023-05-21T09:53:54.390Z,100879.02
2023-05-21T09:56:25.984Z,100879.27
2023-05-21T09:58:57.801Z,100876.80
2023-05-21T10:01:28.978Z,100877.88
2023-05-21T10:04:00.367Z,100874.48
2023-05-21T10:06:32.349Z,100881.41
2023-05-21T10:09:05.629Z,100878.06
2023-05-21T10:11:37.757Z,100875.95
2023-05-21T10:14:10.604Z,100868.33
2023-05-21T10:16:42.003Z,100868.98
2023-05-21T10:19:13.401Z,100868.70
2023-05-21T10:21:45.008Z,100866.39
2023-05-21T10:24:16.608Z,100867.48
2023-05-21T10:26:48.048Z,100871.20
2023-05-21T10:29:19.826Z,100865.85
2023-05-21T10:31:51.162Z,100866.73
2023-05-21T10:34:24.590Z,100866.84
2023-05-21T10:36:58.091Z,100862.70
2023-05-21T10:39:30.140Z,100863.46
2023-05-21T10:42:04.987Z,100855.77
2023-05-21T10:44:42.032Z,100854.65
2023-05-21T10:47:32.923Z,100855.33
2023-05-21T10:50:17.110Z,100847.77
2023-05-21T10:52:57.225Z,100841.15
2023-05-21T10:55:36.261Z,100840.39
2023-05-21T10:58:23.761Z,100837.61
2023-05-21T11:00:55.934Z,100835.55
2023-05-21T11:03:27.173Z,100831.75
2023-05-21T11:05:58.561Z,100837.80
2023-05-21T11:08:31.727Z,100833.70
2023-05-21T11:11:03.336Z,100830.21
2023-05-21T11:13:48.944Z,100825.33
2023-05-21T11:16:22.690Z,100832.48
2023-05-21T11:19:00.288Z,100834.23
2023-05-21T11:21:32.115Z,100834.23
2023-05-21T11:24:04.258Z,100831.17
2023-05-21T11:26:48.579Z,100828.48
2023-05-21T11:29:19.428Z,100832.42
2023-05-21T11:32:01.643Z,100828.16
2023-05-21T11:34:40.197Z,100828.65
2023-05-21T11:37:41.852Z,100824.00
2023-05-21T11:40:20.073Z,100818.23
2023-05-21T11:42:53.132Z,100812.09
2023-05-21T11:45:24.878Z,100813.25
2023-05-21T11:47:56.313Z,100815.71
2023-05-21T11:50:30.696Z,100816.31
2023-05-21T11:53:02.053Z,100807.38
2023-05-21T11:55:33.312Z,100806.45
2023-05-21T11:58:04.422Z,100802.84
2023-05-21T12:00:39.606Z,100802.39
2023-05-21T12:03:15.076Z,100804.31
2023-05-21T12:05:49.790Z,100805.81
2023-05-21T12:08:25.582Z,100797.84
2023-05-21T12:10:59.950Z,100798.13
2023-05-21T12:13:32.230Z,100806.83
2023-05-21T12:16:05.892Z,100803.63
2023-05-21T12:18:38.597Z,100802.34
2023-05-21T12:21:11.786Z,100798.41
2023-05-21T12:23:43.472Z,100802.61
2023-05-21T12:26:15.132Z,100803.66
2023-05-21T12:28:46.066Z,100798.02
2023-05-21T12:31:17.681Z,100796.85
2023-05-21T12:33:50.547Z,100797.02
2023-05-21T12:36:27.625Z,100797.02
2023-05-21T12:38:59.002Z,100789.86
2023-05-21T12:41:30.861Z,100784.89
2023-05-21T12:44:01.863Z,100786.55
2023-05-21T12:46:32.969Z,100783.27
2023-05-21T12:49:04.374Z,100781.66
2023-05-21T12:51:41.287Z,100776.23
2023-05-21T12:54:14.561Z,100776.36
2023-05-21T12:56:48.262Z,100782.65
2023-05-21T12:59:19.031Z,100775.46
2023-05-21T13:01:50.086Z,100771.86
2023-05-21T13:04:22.457Z,100771.95
2023-05-21T13:06:53.386Z,100764.75
2023-05-21T13:09:24.124Z,100765.70
2023-05-21T13:11:55.111Z,100766.36
2023-05-21T13:14:25.892Z,100760.05
2023-05-21T13:16:57.391Z,100762.94
2023-05-21T13:19:28.444Z,100758.11
2023-05-21T13:22:00.203Z,100761.05
2023-05-21T13:24:31.028Z,100756.67
2023-05-21T13:27:01.806Z,100757.67
2023-05-21T13:29:32.597Z,100753.51
2023-05-21T13:32:03.611Z,100748.61
2023-05-21T13:34:34.431Z,100752.38
2023-05-21T13:37:05.149Z,100751.38
2023-05-21T13:39:35.929Z,100750.63
2023-05-21T13:42:07.136Z,100745.75
2023-05-21T13:44:37.902Z,100741.55
2023-05-21T13:47:10.447Z,100739.00
2023-05-21T13:49:41.437Z,100742.39
2023-05-21T13:52:12.826Z,100739.73
2023-05-21T13:54:43.762Z,100733.31
2023-05-21T13:57:14.631Z,100735.66
2023-05-21T13:59:45.575Z,100739.65
2023-05-21T14:02:16.377Z,100738.98
2023-05-21T14:04:47.304Z,100735.04
2023-05-21T14:07:18.153Z,100737.04
2023-05-21T14:09:49.091Z,100734.25
2023-05-21T14:12:20.685Z,100737.64
2023-05-21T14:14:51.804Z,100736.73
2023-05-21T14:17:22.530Z,100735.28
2023-05-21T14:19:53.217Z,100729.71
2023-05-21T14:22:24.007Z,100722.17
2023-05-21T14:24:54.779Z,100716.52
2023-05-21T14:27:25.574Z,100711.84
2023-05-21T14:29:56.406Z,100722.83
2023-05-21T14:32:27.314Z,100719.37
2023-05-21T14:34:59.523Z,100720.77
2023-05-21T14:37:30.310Z,100717.36
2023-05-21T14:40:01.199Z,100713.30
2023-05-21T14:42:32.202Z,100710.52
2023-05-21T14:45:17.566Z,100713.98
2023-05-21T14:47:49.779Z,100713.29
2023-05-21T14:50:21.794Z,100712.55
2023-05-21T14:52:52.566Z,100703.61
2023-05-21T14:55:23.529Z,100703.02
2023-05-21T14:57:54.255Z,100704.11
2023-05-21T15:00:24.976Z,100697.73
2023-05-21T15:02:57.313Z,100704.70
2023-05-21T15:05:29.721Z,100702.30
2023-05-21T15:08:00.650Z,100700.03
2023-05-21T15:10:31.465Z,100699.23
2023-05-21T15:13:02.248Z,100701.45
2023-05-21T15:15:33.168Z,100699.29
2023-05-21T15:18:04.243Z,100704.48
2023-05-21T15:20:34.999Z,100699.73
2023-05-21T15:23:15.854Z,100700.90
2023-05-21T15:25:47.874Z,100703.83
2023-05-21T15:28:18.716Z,100701.48
2023-05-21T15:30:49.653Z,100702.77
2023-05-21T15:33:20.451Z,100693.86
2023-05-21T15:35:51.406Z,100692.70
2023-05-21T15:38:22.325Z,100693.61
2023-05-21T15:40:53.177Z,100691.16
2023-05-21T15:43:23.867Z,100690.41
2023-05-21T15:45:54.658Z,100689.88
2023-05-21T15:48:25.394Z,100688.56
2023-05-21T15:50:56.533Z,100680.42
2023-05-21T15:53:27.282Z,100679.98
2023-05-21T15:55:58.291Z,100679.59
2023-05-21T15:58:29.068Z,100682.55
2023-05-21T16:01:00.165Z,100680.98
2023-05-21T16:03:31.126Z,100680.38
2023-05-21T16:06:01.960Z,100677.73
2023-05-21T16:08:32.843Z,100673.76
2023-05-21T16:11:03.642Z,100675.21
2023-05-21T16:13:34.542Z,100670.27
2023-05-21T16:16:05.584Z,100670.21
2023-05-21T16:18:36.364Z,100670.32
2023-05-21T16:21:07.423Z,100668.90
2023-05-21T16:23:38.963Z,100664.56
2023-05-21T16:26:10.234Z,100661.43
2023-05-21T16:28:41.046Z,100660.00
2023-05-21T16:31:12.962Z,100655.72
2023-05-21T16:33:43.761Z,100660.55
2023-05-21T16:36:15.814Z,100658.86
2023-05-21T16:38:48.254Z,100659.14
2023-05-21T16:41:19.254Z,100656.69
2023-05-21T16:43:50.014Z,100658.13
2023-05-21T16:46:21.092Z,100653.38
2023-05-21T16:48:51.956Z,100656.36
2023-05-21T16:51:22.740Z,100651.60
2023-05-21T16:53:53.554Z,100647.23
2023-05-21T16:56:24.326Z,100645.67
2023-05-21T16:58:55.074Z,100649.09
2023-05-21T17:01:25.976Z,100651.55
2023-05-21T17:03:57.043Z,100649.61
2023-05-21T17:06:27.952Z,100650.19
2023-05-21T17:08:58.822Z,100648.98
2023-05-21T17:11:29.651Z,100651.22
2023-05-21T17:14:00.478Z,100653.30
2023-05-21T17:16:31.385Z,100653.96
2023-05-21T17:19:02.237Z,100656.48
2023-05-21T17:21:33.096Z,100659.11
2023-05-21T17:24:03.890Z,100657.34
2023-05-21T17:26:35.017Z,100660.20
2023-05-21T17:29:05.877Z,100656.05
2023-05-21T17:31:36.748Z,100653.23
2023-05-21T17:34:07.619Z,100650.74
2023-05-21T17:36:38.621Z,100651.09
2023-05-21T17:39:09.294Z,100651.86
2023-05-21T17:41:40.565Z,100651.90
2023-05-21T17:44:11.538Z,100652.55
2023-05-21T17:46:42.347Z,100651.40
2023-05-21T17:49:13.376Z,100652.23
2023-05-21T17:51:44.606Z,100651.52
2023-05-21T17:54:16.175Z,100653.87
2023-05-21T17:56:46.916Z,100658.77
2023-05-21T17:59:17.771Z,100652.19
2023-05-21T18:01:48.623Z,100655.20
2023-05-21T18:04:19.722Z,100651.94
2023-05-21T18:06:51.654Z,100650.68
2023-05-21T18:09:22.390Z,100650.88
2023-05-21T18:11:53.566Z,100655.63
2023-05-21T18:14:24.354Z,100653.48
2023-05-21T18:16:55.527Z,100654.21
2023-05-21T18:19:26.907Z,100652.70
2023-05-21T18:21:57.868Z,100655.70
2023-05-21T18:24:28.704Z,100661.25
2023-05-21T18:26:59.697Z,100668.29
2023-05-21T18:29:30.460Z,100671.24
2023-05-21T18:32:01.452Z,100669.99
2023-05-21T18:34:32.541Z,100668.88
2023-05-21T18:37:03.391Z,100673.64
2023-05-21T18:39:34.119Z,100674.84
2023-05-21T18:42:12.795Z,100676.02
2023-05-21T18:44:46.079Z,100682.00
2023-05-21T18:47:17.014Z,100681.32
2023-05-21T18:49:47.850Z,100684.52
2023-05-21T18:52:18.676Z,100687.82
2023-05-21T18:54:49.471Z,100690.12
2023-05-21T18:57:20.577Z,100688.00
2023-05-21T18:59:51.430Z,100688.80
2023-05-21T19:02:22.498Z,100687.52
2023-05-21T19:04:53.359Z,100686.89
2023-05-21T19:07:24.186Z,100688.02
2023-05-21T19:09:55.017Z,100692.56
2023-05-21T19:12:25.891Z,100691.52
2023-05-21T19:14:56.751Z,100692.46
2023-05-21T19:17:27.965Z,100695.58
2023-05-21T19:19:58.673Z,100697.63
2023-05-21T19:22:29.571Z,100698.59
2023-05-21T19:25:00.830Z,100698.33
2023-05-21T19:27:31.968Z,100698.06
2023-05-21T19:30:02.770Z,100696.61
2023-05-21T19:32:33.510Z,100695.25
2023-05-21T19:35:05.657Z,100693.41
2023-05-21T19:37:36.528Z,100693.33
2023-05-21T19:40:09.659Z,100685.67
2023-05-21T19:42:40.992Z,100684.40
2023-05-21T19:45:13.450Z,100683.23
2023-05-21T19:47:44.323Z,100684.17
2023-05-21T19:50:15.142Z,100681.42
2023-05-21T19:52:45.926Z,100679.39
2023-05-21T19:55:20.469Z,100678.95
2023-05-21T19:57:51.648Z,100677.25
2023-05-21T20:00:22.673Z,100677.20
2023-05-21T20:02:54.174Z,100672.65
2023-05-21T20:05:25.078Z,100672.95
2023-05-21T20:07:56.079Z,100671.61
2023-05-21T20:10:28.246Z,100670.77
2023-05-21T20:12:59.007Z,100674.75
2023-05-21T20:15:30.023Z,100671.19
2023-05-21T20:18:01.090Z,100669.09
2023-05-21T20:20:34.714Z,100667.03
2023-05-21T20:23:05.646Z,100670.10
2023-05-21T20:25:36.537Z,100673.17
2023-05-21T20:28:08.227Z,100673.95
2023-05-21T20:30:53.637Z,100675.70
2023-05-21T20:33:25.330Z,100677.61
2023-05-21T20:35:56.192Z,100680.19
2023-05-21T20:38:27.112Z,100683.86
2023-05-21T20:40:57.994Z,100686.05
2023-05-21T20:43:28.822Z,100683.95
2023-05-21T20:46:00.584Z,100687.95
2023-05-21T20:48:31.970Z,100688.97
2023-05-21T20:51:04.738Z,100689.27
2023-05-21T20:53:35.645Z,100685.63
2023-05-21T20:56:08.297Z,100686.52
2023-05-21T20:58:40.085Z,100689.78
2023-05-21T21:01:11.105Z,100691.48
2023-05-21T21:03:44.013Z,100688.42
2023-05-21T21:06:16.257Z,100688.43
2023-05-21T21:08:50.409Z,100686.64
2023-05-21T21:11:21.978Z,100690.70
2023-05-21T21:13:52.895Z,100688.90
2023-05-21T21:16:23.784Z,100688.59
2023-05-21T21:18:54.602Z,100685.84
2023-05-21T21:21:25.457Z,100682.38
2023-05-21T21:23:56.277Z,100685.27
2023-05-21T21:26:27.400Z,100690.33
2023-05-21T21:28:59.636Z,100692.13
2023-05-21T21:31:30.622Z,100690.92
2023-05-21T21:34:01.495Z,100693.16
2023-05-21T21:36:32.515Z,100694.95
2023-05-21T21:39:03.362Z,100693.22
2023-05-21T21:41:34.269Z,100690.70
2023-05-21T21:44:05.127Z,100690.95
2023-05-21T21:46:35.989Z,100689.79
2023-05-21T21:49:06.840Z,100690.89
2023-05-21T21:51:38.117Z,100689.52
2023-05-21T21:54:09.010Z,100688.62
2023-05-21T21:56:39.948Z,100692.15
2023-05-21T21:59:10.786Z,100690.53
2023-05-21T22:01:41.800Z,100695.23
2023-05-21T22:04:12.827Z,100698.59
2023-05-21T22:06:45.450Z,100697.02
2023-05-21T22:09:17.173Z,100691.02
2023-05-21T22:11:47.994Z,100692.33
2023-05-21T22:14:19.587Z,100691.39
2023-05-21T22:16:53.250Z,100690.02
2023-05-21T22:19:24.409Z,100689.98
2023-05-21T22:21:55.452Z,100691.70
2023-05-21T22:27:01.419Z,100687.52
2023-05-21T22:29:32.175Z,100688.89
2023-05-21T22:32:03.042Z,100688.46
2023-05-21T22:34:33.898Z,100681.30
2023-05-21T22:37:04.896Z,100682.55
2023-05-21T22:39:36.050Z,100685.41
2023-05-21T22:42:07.406Z,100681.60
2023-05-21T22:44:38.263Z,100682.45
2023-05-21T22:47:10.216Z,100680.73
2023-05-21T22:49:41.229Z,100678.77
2023-05-21T22:52:12.243Z,100682.57
2023-05-21T22:54:43.292Z,100675.23
2023-05-21T22:57:14.121Z,100674.70
2023-05-21T22:59:45.087Z,100672.61
2023-05-21T23:02:16.192Z,100675.59
2023-05-21T23:04:48.486Z,100672.05
2023-05-21T23:07:19.431Z,100670.21
2023-05-21T23:09:51.873Z,100666.48
2023-05-21T23:12:22.764Z,100663.50
2023-05-21T23:14:53.624Z,100666.40
2023-05-21T23:17:24.552Z,100663.74
2023-05-21T23:19:56.336Z,100667.16
2023-05-21T23:22:27.191Z,100665.91
2023-05-21T23:24:58.300Z,100669.19
2023-05-21T23:27:29.338Z,100670.53
2023-05-21T23:30:00.262Z,100668.98
2023-05-21T23:32:31.152Z,100668.01
2023-05-21T23:35:02.044Z,100665.14
2023-05-21T23:37:32.816Z,100666.15
2023-05-21T23:40:03.907Z,100666.60
2023-05-21T23:42:34.744Z,100663.00
2023-05-21T23:45:05.874Z,100664.39
2023-05-21T23:47:36.919Z,100664.56
2023-05-21T23:50:09.383Z,100661.98
2023-05-21T23:52:41.643Z,100660.13
2023-05-21T23:55:14.931Z,100661.51
2023-05-21T23:57:45.870Z,100665.98
